sensor_id;sensor_type;location;lat;lon;timestamp;pressure;altitude;pressure_sealevel;temperature;humidity
47080;BME280;33067;49.296;14.470;2023-06-22T00:00:26;97253.76;;;22.84;44.18
47080;BME280;33067;49.296;14.470;2023-06-22T00:02:52;97257.98;;;22.76;44.48
47080;BME280;33067;49.296;14.470;2023-06-22T00:05:18;97261.61;;;22.42;44.98
47080;BME280;33067;49.296;14.470;2023-06-22T00:07:43;97265.84;;;22.62;45.27
47080;BME280;33067;49.296;14.470;2023-06-22T00:10:09;97266.36;;;22.56;45.57
47080;BME280;33067;49.296;14.470;2023-06-22T00:12:34;97266.90;;;22.60;44.52
47080;BME280;33067;49.296;14.470;2023-06-22T00:14:59;97264.63;;;22.28;45.25
47080;BME280;33067;49.296;14.470;2023-06-22T00:17:24;97260.40;;;22.34;45.27
47080;BME280;33067;49.296;14.470;2023-06-22T00:19:49;97259.80;;;22.39;44.94
47080;BME280;33067;49.296;14.470;2023-06-22T00:22:15;97257.50;;;22.65;44.93
47080;BME280;33067;49.296;14.470;2023-06-22T00:24:40;97259.33;;;22.61;44.93
47080;BME280;33067;49.296;14.470;2023-06-22T00:27:05;97259.86;;;22.39;45.03
47080;BME280;33067;49.296;14.470;2023-06-22T00:29:30;97257.09;;;21.98;45.36
47080;BME280;33067;49.296;14.470;2023-06-22T00:31:55;97261.74;;;22.33;45.24
47080;BME280;33067;49.296;14.470;2023-06-22T00:34:20;97266.97;;;22.38;45.06
47080;BME280;33067;49.296;14.470;2023-06-22T00:36:45;97269.32;;;22.39;45.30
47080;BME280;33067;49.296;14.470;2023-06-22T00:39:10;97268.50;;;22.62;45.06
47080;BME280;33067;49.296;14.470;2023-06-22T00:41:36;97265.41;;;22.74;44.64
47080;BME280;33067;49.296;14.470;2023-06-22T00:44:01;97266.82;;;22.36;44.96
47080;BME280;33067;49.296;14.470;2023-06-22T00:46:26;97270.87;;;22.46;44.66
47080;BME280;33067;49.296;14.470;2023-06-22T00:48:52;97272.10;;;22.77;44.62
47080;BME280;33067;49.296;14.470;2023-06-22T00:51:17;97270.66;;;22.65;44.86
47080;BME280;33067;49.296;14.470;2023-06-22T00:53:42;97270.42;;;22.74;44.59
47080;BME280;33067;49.296;14.470;2023-06-22T00:56:07;97266.31;;;22.62;44.76
47080;BME280;33067;49.296;14.470;2023-06-22T00:58:32;97256.42;;;22.42;44.43
47080;BME280;33067;49.296;14.470;2023-06-22T01:00:58;97256.03;;;22.47;44.23
47080;BME280;33067;49.296;14.470;2023-06-22T01:03:23;97257.80;;;22.62;44.56
47080;BME280;33067;49.296;14.470;2023-06-22T01:05:50;97254.84;;;22.37;44.70
47080;BME280;33067;49.296;14.470;2023-06-22T01:08:25;97255.06;;;22.50;44.44
47080;BME280;33067;49.296;14.470;2023-06-22T01:10:43;97251.92;;;22.85;44.00
47080;BME280;33067;49.296;14.470;2023-06-22T01:13:11;97252.84;;;22.39;44.30
47080;BME280;33067;49.296;14.470;2023-06-22T01:15:33;97250.99;;;22.31;44.68
47080;BME280;33067;49.296;14.470;2023-06-22T01:17:56;97249.06;;;22.65;44.40
47080;BME280;33067;49.296;14.470;2023-06-22T01:20:20;97246.92;;;22.15;44.61
47080;BME280;33067;49.296;14.470;2023-06-22T01:22:55;97241.61;;;22.40;44.59
47080;BME280;33067;49.296;14.470;2023-06-22T01:25:12;97236.58;;;22.19;45.03
47080;BME280;33067;49.296;14.470;2023-06-22T01:27:42;97234.89;;;22.37;44.77
47080;BME280;33067;49.296;14.470;2023-06-22T01:30:01;97240.00;;;22.35;44.93
47080;BME280;33067;49.296;14.470;2023-06-22T01:32:27;97240.86;;;22.31;44.81
47080;BME280;33067;49.296;14.470;2023-06-22T01:34:52;97244.24;;;22.75;45.10
47080;BME280;33067;49.296;14.470;2023-06-22T01:37:17;97245.47;;;21.69;45.70
47080;BME280;33067;49.296;14.470;2023-06-22T01:39:42;97241.57;;;22.27;45.74
47080;BME280;33067;49.296;14.470;2023-06-22T01:42:07;97236.78;;;21.81;45.58
47080;BME280;33067;49.296;14.470;2023-06-22T01:44:33;97240.00;;;22.21;44.73
47080;BME280;33067;49.296;14.470;2023-06-22T01:46:58;97241.20;;;22.12;44.89
47080;BME280;33067;49.296;14.470;2023-06-22T01:49:22;97242.13;;;22.06;44.97
47080;BME280;33067;49.296;14.470;2023-06-22T01:51:47;97244.87;;;21.98;45.23
47080;BME280;33067;49.296;14.470;2023-06-22T01:54:12;97241.09;;;21.94;45.43
47080;BME280;33067;49.296;14.470;2023-06-22T01:56:38;97237.05;;;22.01;45.30
47080;BME280;33067;49.296;14.470;2023-06-22T01:59:09;97237.82;;;22.11;45.21
47080;BME280;33067;49.296;14.470;2023-06-22T02:01:33;97240.68;;;22.15;45.05
47080;BME280;33067;49.296;14.470;2023-06-22T02:04:02;97244.01;;;21.85;45.01
47080;BME280;33067;49.296;14.470;2023-06-22T02:06:23;97244.61;;;21.81;45.41
47080;BME280;33067;49.296;14.470;2023-06-22T02:08:49;97245.26;;;21.82;45.59
47080;BME280;33067;49.296;14.470;2023-06-22T02:13:04;97245.97;;;21.83;45.24
47080;BME280;33067;49.296;14.470;2023-06-22T02:15:26;97248.63;;;21.88;45.82
47080;BME280;33067;49.296;14.470;2023-06-22T02:17:51;97248.92;;;21.96;46.00
47080;BME280;33067;49.296;14.470;2023-06-22T02:20:16;97247.10;;;21.88;46.37
47080;BME280;33067;49.296;14.470;2023-06-22T02:22:41;97240.47;;;21.03;46.48
47080;BME280;33067;49.296;14.470;2023-06-22T02:25:07;97234.99;;;21.20;46.82
47080;BME280;33067;49.296;14.470;2023-06-22T02:27:31;97235.10;;;21.31;47.04
47080;BME280;33067;49.296;14.470;2023-06-22T02:29:57;97238.00;;;21.28;47.07
47080;BME280;33067;49.296;14.470;2023-06-22T02:32:21;97231.46;;;21.32;46.90
47080;BME280;33067;49.296;14.470;2023-06-22T02:34:46;97224.90;;;20.90;46.99
47080;BME280;33067;49.296;14.470;2023-06-22T02:37:11;97224.58;;;21.20;47.02
47080;BME280;33067;49.296;14.470;2023-06-22T02:39:36;97232.01;;;21.13;47.14
47080;BME280;33067;49.296;14.470;2023-06-22T02:42:02;97236.88;;;21.01;47.51
47080;BME280;33067;49.296;14.470;2023-06-22T02:44:27;97242.01;;;21.01;47.10
47080;BME280;33067;49.296;14.470;2023-06-22T02:46:52;97238.65;;;20.83;47.73
47080;BME280;33067;49.296;14.470;2023-06-22T02:49:17;97234.78;;;20.58;46.99
47080;BME280;33067;49.296;14.470;2023-06-22T02:51:44;97232.78;;;20.56;46.70
47080;BME280;33067;49.296;14.470;2023-06-22T02:54:07;97229.34;;;20.43;46.95
47080;BME280;33067;49.296;14.470;2023-06-22T02:56:32;97231.22;;;20.97;46.55
47080;BME280;33067;49.296;14.470;2023-06-22T02:58:57;97229.90;;;20.66;46.57
47080;BME280;33067;49.296;14.470;2023-06-22T03:01:22;97228.41;;;21.03;46.30
47080;BME280;33067;49.296;14.470;2023-06-22T03:03:48;97221.48;;;21.19;45.88
47080;BME280;33067;49.296;14.470;2023-06-22T03:06:13;97221.50;;;21.09;46.10
47080;BME280;33067;49.296;14.470;2023-06-22T03:08:38;97221.85;;;20.82;46.16
47080;BME280;33067;49.296;14.470;2023-06-22T03:11:03;97223.99;;;21.19;46.09
47080;BME280;33067;49.296;14.470;2023-06-22T03:13:28;97225.66;;;21.23;46.25
47080;BME280;33067;49.296;14.470;2023-06-22T03:15:53;97230.89;;;21.25;46.17
47080;BME280;33067;49.296;14.470;2023-06-22T03:18:19;97237.43;;;21.07;46.11
47080;BME280;33067;49.296;14.470;2023-06-22T03:20:44;97240.82;;;21.16;46.17
47080;BME280;33067;49.296;14.470;2023-06-22T03:23:09;97240.55;;;20.84;45.78
47080;BME280;33067;49.296;14.470;2023-06-22T03:25:35;97232.11;;;21.04;46.12
47080;BME280;33067;49.296;14.470;2023-06-22T03:27:59;97230.90;;;21.29;45.95
47080;BME280;33067;49.296;14.470;2023-06-22T03:30:25;97230.35;;;21.29;45.99
47080;BME280;33067;49.296;14.470;2023-06-22T03:32:49;97229.97;;;20.96;45.95
47080;BME280;33067;49.296;14.470;2023-06-22T03:35:15;97230.46;;;20.87;46.32
47080;BME280;33067;49.296;14.470;2023-06-22T03:37:40;97232.44;;;20.76;46.72
47080;BME280;33067;49.296;14.470;2023-06-22T03:40:06;97233.57;;;21.10;46.41
47080;BME280;33067;49.296;14.470;2023-06-22T03:42:30;97233.71;;;21.22;46.27
47080;BME280;33067;49.296;14.470;2023-06-22T03:44:56;97230.32;;;21.13;46.48
47080;BME280;33067;49.296;14.470;2023-06-22T03:47:21;97228.43;;;21.23;46.30
47080;BME280;33067;49.296;14.470;2023-06-22T03:49:46;97229.12;;;21.15;46.80
47080;BME280;33067;49.296;14.470;2023-06-22T03:52:11;97235.33;;;21.13;47.07
47080;BME280;33067;49.296;14.470;2023-06-22T03:54:37;97235.79;;;21.16;46.86
47080;BME280;33067;49.296;14.470;2023-06-22T03:57:01;97232.08;;;21.36;46.58
47080;BME280;33067;49.296;14.470;2023-06-22T03:59:27;97230.40;;;21.67;46.10
47080;BME280;33067;49.296;14.470;2023-06-22T04:01:52;97230.20;;;21.67;45.95
47080;BME280;33067;49.296;14.470;2023-06-22T04:04:17;97229.08;;;21.21;46.57
47080;BME280;33067;49.296;14.470;2023-06-22T04:06:42;97228.32;;;21.14;46.75
47080;BME280;33067;49.296;14.470;2023-06-22T04:09:07;97231.05;;;21.46;46.67
47080;BME280;33067;49.296;14.470;2023-06-22T04:11:32;97230.50;;;21.93;45.82
47080;BME280;33067;49.296;14.470;2023-06-22T04:13:58;97224.47;;;21.62;46.17
47080;BME280;33067;49.296;14.470;2023-06-22T04:16:23;97221.47;;;21.79;45.98
47080;BME280;33067;49.296;14.470;2023-06-22T04:18:48;97221.08;;;21.75;45.45
47080;BME280;33067;49.296;14.470;2023-06-22T04:21:13;97222.79;;;22.14;45.36
47080;BME280;33067;49.296;14.470;2023-06-22T04:23:38;97226.59;;;21.92;45.36
47080;BME280;33067;49.296;14.470;2023-06-22T04:26:03;97227.71;;;22.18;44.93
47080;BME280;33067;49.296;14.470;2023-06-22T04:28:28;97230.66;;;21.55;46.05
47080;BME280;33067;49.296;14.470;2023-06-22T04:30:53;97227.86;;;21.64;46.01
47080;BME280;33067;49.296;14.470;2023-06-22T04:33:18;97230.31;;;22.04;45.06
47080;BME280;33067;49.296;14.470;2023-06-22T04:35:45;97229.76;;;21.89;45.66
47080;BME280;33067;49.296;14.470;2023-06-22T04:38:12;97231.46;;;21.58;46.15
47080;BME280;33067;49.296;14.470;2023-06-22T04:40:34;97226.06;;;21.64;45.97
47080;BME280;33067;49.296;14.470;2023-06-22T04:42:59;97222.73;;;21.72;45.90
47080;BME280;33067;49.296;14.470;2023-06-22T04:45:25;97224.54;;;21.64;45.97
47080;BME280;33067;49.296;14.470;2023-06-22T04:47:51;97223.13;;;21.72;45.96
47080;BME280;33067;49.296;14.470;2023-06-22T04:50:17;97214.69;;;21.86;45.36
47080;BME280;33067;49.296;14.470;2023-06-22T04:52:42;97215.87;;;21.85;45.33
47080;BME280;33067;49.296;14.470;2023-06-22T04:55:07;97225.49;;;21.99;45.42
47080;BME280;33067;49.296;14.470;2023-06-22T04:57:32;97223.04;;;22.23;45.13
47080;BME280;33067;49.296;14.470;2023-06-22T04:59:58;97219.29;;;22.06;45.34
47080;BME280;33067;49.296;14.470;2023-06-22T05:02:23;97218.40;;;22.09;45.47
47080;BME280;33067;49.296;14.470;2023-06-22T05:04:48;97223.54;;;22.28;45.00
47080;BME280;33067;49.296;14.470;2023-06-22T05:07:13;97228.21;;;22.24;45.19
47080;BME280;33067;49.296;14.470;2023-06-22T05:09:39;97233.21;;;22.29;45.66
47080;BME280;33067;49.296;14.470;2023-06-22T05:12:06;97234.74;;;22.12;45.42
47080;BME280;33067;49.296;14.470;2023-06-22T05:14:30;97235.66;;;21.84;46.32
47080;BME280;33067;49.296;14.470;2023-06-22T05:16:56;97237.60;;;21.93;46.54
47080;BME280;33067;49.296;14.470;2023-06-22T05:19:21;97238.81;;;21.26;46.29
47080;BME280;33067;49.296;14.470;2023-06-22T05:21:46;97237.77;;;22.33;45.96
47080;BME280;33067;49.296;14.470;2023-06-22T05:24:12;97237.84;;;22.08;46.20
47080;BME280;33067;49.296;14.470;2023-06-22T05:26:38;97236.05;;;21.72;46.43
47080;BME280;33067;49.296;14.470;2023-06-22T05:29:04;97233.37;;;21.63;46.45
47080;BME280;33067;49.296;14.470;2023-06-22T05:31:29;97240.29;;;21.76;46.54
47080;BME280;33067;49.296;14.470;2023-06-22T05:33:55;97242.23;;;21.87;46.32
47080;BME280;33067;49.296;14.470;2023-06-22T05:36:20;97238.80;;;22.08;46.86
47080;BME280;33067;49.296;14.470;2023-06-22T05:38:46;97236.11;;;21.85;47.01
47080;BME280;33067;49.296;14.470;2023-06-22T05:41:11;97236.59;;;22.00;47.03
47080;BME280;33067;49.296;14.470;2023-06-22T05:43:36;97237.33;;;22.06;46.90
47080;BME280;33067;49.296;14.470;2023-06-22T05:46:03;97237.79;;;21.77;46.67
47080;BME280;33067;49.296;14.470;2023-06-22T05:48:27;97238.27;;;22.34;46.61
47080;BME280;33067;49.296;14.470;2023-06-22T05:50:53;97241.50;;;22.26;46.44
47080;BME280;33067;49.296;14.470;2023-06-22T05:53:18;97239.64;;;22.56;46.23
47080;BME280;33067;49.296;14.470;2023-06-22T05:55:44;97241.87;;;23.10;45.78
47080;BME280;33067;49.296;14.470;2023-06-22T05:58:09;97239.99;;;22.67;46.28
47080;BME280;33067;49.296;14.470;2023-06-22T06:00:35;97240.85;;;22.54;46.46
47080;BME280;33067;49.296;14.470;2023-06-22T06:03:00;97243.26;;;22.78;46.03
47080;BME280;33067;49.296;14.470;2023-06-22T06:05:25;97250.32;;;22.99;46.23
47080;BME280;33067;49.296;14.470;2023-06-22T06:07:51;97252.01;;;22.54;46.11
47080;BME280;33067;49.296;14.470;2023-06-22T06:10:16;97250.16;;;22.71;46.16
47080;BME280;33067;49.296;14.470;2023-06-22T06:12:42;97250.07;;;22.55;46.23
47080;BME280;33067;49.296;14.470;2023-06-22T06:15:08;97251.84;;;22.80;45.88
47080;BME280;33067;49.296;14.470;2023-06-22T06:17:33;97257.26;;;23.25;45.69
47080;BME280;33067;49.296;14.470;2023-06-22T06:20:00;97261.61;;;23.03;45.80
47080;BME280;33067;49.296;14.470;2023-06-22T06:22:24;97263.94;;;23.07;45.74
47080;BME280;33067;49.296;14.470;2023-06-22T06:24:50;97264.18;;;23.42;45.55
47080;BME280;33067;49.296;14.470;2023-06-22T06:27:16;97265.43;;;23.40;45.66
47080;BME280;33067;49.296;14.470;2023-06-22T06:29:41;97263.89;;;23.43;45.67
47080;BME280;33067;49.296;14.470;2023-06-22T06:32:07;97261.49;;;23.44;45.66
47080;BME280;33067;49.296;14.470;2023-06-22T06:34:32;97259.78;;;23.31;45.58
47080;BME280;33067;49.296;14.470;2023-06-22T06:36:57;97261.18;;;24.09;45.16
47080;BME280;33067;49.296;14.470;2023-06-22T06:39:23;97260.37;;;24.01;44.95
47080;BME280;33067;49.296;14.470;2023-06-22T06:41:48;97264.19;;;23.79;45.21
47080;BME280;33067;49.296;14.470;2023-06-22T06:44:13;97264.84;;;23.90;44.98
47080;BME280;33067;49.296;14.470;2023-06-22T06:46:38;97259.13;;;24.26;44.65
47080;BME280;33067;49.296;14.470;2023-06-22T06:49:04;97256.97;;;24.45;44.33
47080;BME280;33067;49.296;14.470;2023-06-22T06:51:30;97255.39;;;24.45;44.33
47080;BME280;33067;49.296;14.470;2023-06-22T06:53:55;97252.50;;;24.80;44.16
47080;BME280;33067;49.296;14.470;2023-06-22T06:56:21;97249.21;;;24.89;43.99
47080;BME280;33067;49.296;14.470;2023-06-22T06:58:46;97247.95;;;24.86;44.39
47080;BME280;33067;49.296;14.470;2023-06-22T07:01:11;97246.78;;;25.10;44.13
47080;BME280;33067;49.296;14.470;2023-06-22T07:03:37;97249.57;;;24.83;44.19
47080;BME280;33067;49.296;14.470;2023-06-22T07:06:03;97243.75;;;25.13;43.84
47080;BME280;33067;49.296;14.470;2023-06-22T07:08:28;97238.15;;;24.08;45.67
47080;BME280;33067;49.296;14.470;2023-06-22T07:10:54;97229.29;;;24.23;45.30
47080;BME280;33067;49.296;14.470;2023-06-22T07:13:19;97220.80;;;24.59;45.40
47080;BME280;33067;49.296;14.470;2023-06-22T07:15:45;97215.78;;;24.96;45.42
47080;BME280;33067;49.296;14.470;2023-06-22T07:18:12;97211.71;;;24.81;45.15
47080;BME280;33067;49.296;14.470;2023-06-22T07:20:36;97209.25;;;25.03;45.17
47080;BME280;33067;49.296;14.470;2023-06-22T07:23:01;97206.14;;;25.10;45.25
47080;BME280;33067;49.296;14.470;2023-06-22T07:25:27;97207.39;;;25.53;44.77
47080;BME280;33067;49.296;14.470;2023-06-22T07:27:58;97209.75;;;25.44;44.61
47080;BME280;33067;49.296;14.470;2023-06-22T07:30:17;97215.91;;;25.52;44.29
47080;BME280;33067;49.296;14.470;2023-06-22T07:32:43;97218.20;;;25.63;44.36
47080;BME280;33067;49.296;14.470;2023-06-22T07:35:08;97215.26;;;26.15;44.34
47080;BME280;33067;49.296;14.470;2023-06-22T07:37:34;97213.62;;;26.47;43.39
47080;BME280;33067;49.296;14.470;2023-06-22T07:40:00;97213.82;;;26.61;43.28
47080;BME280;33067;49.296;14.470;2023-06-22T07:42:25;97216.22;;;26.60;43.21
47080;BME280;33067;49.296;14.470;2023-06-22T07:44:50;97211.84;;;26.83;42.37
47080;BME280;33067;49.296;14.470;2023-06-22T07:47:15;97207.63;;;26.75;42.39
47080;BME280;33067;49.296;14.470;2023-06-22T07:49:40;97199.80;;;26.73;42.36
47080;BME280;33067;49.296;14.470;2023-06-22T07:52:06;97196.22;;;26.96;42.38
47080;BME280;33067;49.296;14.470;2023-06-22T07:54:31;97193.27;;;27.51;41.20
47080;BME280;33067;49.296;14.470;2023-06-22T07:56:56;97188.42;;;27.80;40.99
47080;BME280;33067;49.296;14.470;2023-06-22T07:59:22;97190.01;;;27.92;40.92
47080;BME280;33067;49.296;14.470;2023-06-22T08:01:47;97178.19;;;28.38;40.32
47080;BME280;33067;49.296;14.470;2023-06-22T08:04:13;97174.00;;;28.27;39.65
47080;BME280;33067;49.296;14.470;2023-06-22T08:06:38;97170.82;;;28.75;39.66
47080;BME280;33067;49.296;14.470;2023-06-22T08:09:03;97173.16;;;28.53;39.10
47080;BME280;33067;49.296;14.470;2023-06-22T08:11:29;97172.87;;;28.40;39.27
47080;BME280;33067;49.296;14.470;2023-06-22T08:13:54;97170.49;;;28.72;39.57
47080;BME280;33067;49.296;14.470;2023-06-22T08:16:20;97167.36;;;28.93;39.73
47080;BME280;33067;49.296;14.470;2023-06-22T08:18:46;97170.63;;;29.09;39.70
47080;BME280;33067;49.296;14.470;2023-06-22T08:21:11;97171.17;;;29.12;38.91
47080;BME280;33067;49.296;14.470;2023-06-22T08:23:36;97170.11;;;28.95;38.86
47080;BME280;33067;49.296;14.470;2023-06-22T08:26:01;97164.89;;;29.90;38.55
47080;BME280;33067;49.296;14.470;2023-06-22T08:28:27;97166.81;;;29.77;38.54
47080;BME280;33067;49.296;14.470;2023-06-22T08:30:52;97161.86;;;30.19;37.63
47080;BME280;33067;49.296;14.470;2023-06-22T08:33:17;97158.23;;;29.97;37.20
47080;BME280;33067;49.296;14.470;2023-06-22T08:35:43;97152.22;;;30.02;37.36
47080;BME280;33067;49.296;14.470;2023-06-22T08:38:08;97150.54;;;30.30;37.71
47080;BME280;33067;49.296;14.470;2023-06-22T08:40:34;97151.21;;;30.37;36.93
47080;BME280;33067;49.296;14.470;2023-06-22T08:43:00;97154.03;;;30.02;37.59
47080;BME280;33067;49.296;14.470;2023-06-22T08:45:25;97147.60;;;29.94;37.80
47080;BME280;33067;49.296;14.470;2023-06-22T08:47:51;97145.83;;;29.79;36.92
47080;BME280;33067;49.296;14.470;2023-06-22T08:50:16;97146.91;;;30.03;36.87
47080;BME280;33067;49.296;14.470;2023-06-22T08:52:41;97149.01;;;30.20;36.54
47080;BME280;33067;49.296;14.470;2023-06-22T08:55:07;97142.77;;;30.09;36.39
47080;BME280;33067;49.296;14.470;2023-06-22T08:57:32;97140.49;;;29.68;36.90
47080;BME280;33067;49.296;14.470;2023-06-22T08:59:57;97138.42;;;29.12;36.89
47080;BME280;33067;49.296;14.470;2023-06-22T09:02:23;97131.93;;;28.90;36.83
47080;BME280;33067;49.296;14.470;2023-06-22T09:04:48;97128.54;;;29.41;36.81
47080;BME280;33067;49.296;14.470;2023-06-22T09:07:14;97126.44;;;29.53;36.46
47080;BME280;33067;49.296;14.470;2023-06-22T09:09:39;97126.84;;;29.63;35.73
47080;BME280;33067;49.296;14.470;2023-06-22T09:12:05;97123.95;;;29.88;35.83
47080;BME280;33067;49.296;14.470;2023-06-22T09:14:30;97124.68;;;29.87;35.83
47080;BME280;33067;49.296;14.470;2023-06-22T09:16:55;97117.92;;;30.06;35.14
47080;BME280;33067;49.296;14.470;2023-06-22T09:19:20;97118.31;;;30.49;34.44
47080;BME280;33067;49.296;14.470;2023-06-22T09:21:46;97118.17;;;31.09;34.11
47080;BME280;33067;49.296;14.470;2023-06-22T09:24:11;97116.28;;;30.71;33.85
47080;BME280;33067;49.296;14.470;2023-06-22T09:26:37;97115.74;;;30.92;33.71
47080;BME280;33067;49.296;14.470;2023-06-22T09:29:05;97121.08;;;31.31;34.50
47080;BME280;33067;49.296;14.470;2023-06-22T09:31:28;97121.82;;;30.69;33.99
47080;BME280;33067;49.296;14.470;2023-06-22T09:33:54;97121.93;;;30.32;34.85
47080;BME280;33067;49.296;14.470;2023-06-22T09:36:20;97116.18;;;30.60;34.38
47080;BME280;33067;49.296;14.470;2023-06-22T09:38:45;97113.61;;;31.13;34.21
47080;BME280;33067;49.296;14.470;2023-06-22T09:41:10;97110.06;;;31.27;34.18
47080;BME280;33067;49.296;14.470;2023-06-22T09:43:35;97106.56;;;31.66;33.99
47080;BME280;33067;49.296;14.470;2023-06-22T09:46:01;97107.17;;;31.62;33.88
47080;BME280;33067;49.296;14.470;2023-06-22T09:48:27;97106.96;;;31.53;34.40
47080;BME280;33067;49.296;14.470;2023-06-22T09:50:52;97106.66;;;31.45;34.05
47080;BME280;33067;49.296;14.470;2023-06-22T09:53:17;97102.42;;;30.89;33.56
47080;BME280;33067;49.296;14.470;2023-06-22T09:55:42;97100.29;;;30.83;34.10
47080;BME280;33067;49.296;14.470;2023-06-22T09:58:08;97096.80;;;31.19;33.90
47080;BME280;33067;49.296;14.470;2023-06-22T10:00:33;97091.54;;;31.36;33.17
47080;BME280;33067;49.296;14.470;2023-06-22T10:02:58;97086.94;;;31.81;33.49
47080;BME280;33067;49.296;14.470;2023-06-22T10:05:24;97083.00;;;31.82;33.52
47080;BME280;33067;49.296;14.470;2023-06-22T10:07:50;97081.51;;;31.38;32.26
47080;BME280;33067;49.296;14.470;2023-06-22T10:10:15;97078.43;;;31.42;32.42
47080;BME280;33067;49.296;14.470;2023-06-22T10:12:45;97079.14;;;31.23;32.12
47080;BME280;33067;49.296;14.470;2023-06-22T10:15:07;97090.27;;;31.30;31.55
47080;BME280;33067;49.296;14.470;2023-06-22T10:17:32;97082.39;;;30.43;31.58
47080;BME280;33067;49.296;14.470;2023-06-22T10:19:58;97081.05;;;30.60;33.06
47080;BME280;33067;49.296;14.470;2023-06-22T10:22:23;97079.47;;;30.85;33.32
47080;BME280;33067;49.296;14.470;2023-06-22T10:24:49;97084.07;;;30.59;33.35
47080;BME280;33067;49.296;14.470;2023-06-22T10:27:15;97074.95;;;30.35;32.60
47080;BME280;33067;49.296;14.470;2023-06-22T10:29:41;97070.65;;;31.24;32.03
47080;BME280;33067;49.296;14.470;2023-06-22T10:32:07;97087.55;;;31.01;31.29
47080;BME280;33067;49.296;14.470;2023-06-22T10:34:31;97079.07;;;31.14;31.57
47080;BME280;33067;49.296;14.470;2023-06-22T10:36:56;97083.53;;;29.89;32.40
47080;BME280;33067;49.296;14.470;2023-06-22T10:39:22;97081.65;;;29.25;32.42
47080;BME280;33067;49.296;14.470;2023-06-22T10:41:48;97079.08;;;29.94;32.50
47080;BME280;33067;49.296;14.470;2023-06-22T10:44:13;97086.49;;;29.73;32.51
47080;BME280;33067;49.296;14.470;2023-06-22T10:46:39;97068.82;;;29.84;32.34
47080;BME280;33067;49.296;14.470;2023-06-22T10:49:04;97065.72;;;30.62;31.29
47080;BME280;33067;49.296;14.470;2023-06-22T10:51:30;97068.31;;;29.79;32.53
47080;BME280;33067;49.296;14.470;2023-06-22T10:53:55;97066.14;;;30.05;31.84
47080;BME280;33067;49.296;14.470;2023-06-22T10:56:20;97064.01;;;30.14;32.32
47080;BME280;33067;49.296;14.470;2023-06-22T10:58:45;97066.21;;;29.77;32.62
47080;BME280;33067;49.296;14.470;2023-06-22T11:01:11;97055.52;;;30.18;33.08
47080;BME280;33067;49.296;14.470;2023-06-22T11:03:37;97060.45;;;28.44;32.58
47080;BME280;33067;49.296;14.470;2023-06-22T11:06:02;97054.86;;;30.65;31.06
47080;BME280;33067;49.296;14.470;2023-06-22T11:08:28;97054.32;;;31.01;31.06
47080;BME280;33067;49.296;14.470;2023-06-22T11:10:53;97051.21;;;30.93;31.48
47080;BME280;33067;49.296;14.470;2023-06-22T11:13:19;97048.05;;;31.09;31.25
47080;BME280;33067;49.296;14.470;2023-06-22T11:15:44;97054.43;;;31.68;30.95
47080;BME280;33067;49.296;14.470;2023-06-22T11:18:10;97047.33;;;31.93;30.79
47080;BME280;33067;49.296;14.470;2023-06-22T11:20:36;97040.93;;;31.89;30.95
47080;BME280;33067;49.296;14.470;2023-06-22T11:23:01;97037.76;;;32.32;31.08
47080;BME280;33067;49.296;14.470;2023-06-22T11:25:26;97032.66;;;31.82;30.84
47080;BME280;33067;49.296;14.470;2023-06-22T11:27:52;97032.36;;;32.38;30.96
47080;BME280;33067;49.296;14.470;2023-06-22T11:30:18;97027.77;;;32.26;30.62
47080;BME280;33067;49.296;14.470;2023-06-22T11:32:43;97019.87;;;32.98;30.12
47080;BME280;33067;49.296;14.470;2023-06-22T11:35:09;97015.35;;;33.18;29.67
47080;BME280;33067;49.296;14.470;2023-06-22T11:37:34;97023.32;;;32.57;30.73
47080;BME280;33067;49.296;14.470;2023-06-22T11:39:59;97014.27;;;32.91;30.35
47080;BME280;33067;49.296;14.470;2023-06-22T11:42:25;97010.39;;;33.16;29.79
47080;BME280;33067;49.296;14.470;2023-06-22T11:44:51;97006.56;;;33.03;29.97
47080;BME280;33067;49.296;14.470;2023-06-22T11:47:16;97003.43;;;33.21;29.64
47080;BME280;33067;49.296;14.470;2023-06-22T11:49:42;96997.73;;;32.73;29.23
47080;BME280;33067;49.296;14.470;2023-06-22T11:52:08;96999.52;;;32.39;30.06
47080;BME280;33067;49.296;14.470;2023-06-22T11:54:33;96998.38;;;32.36;30.00
47080;BME280;33067;49.296;14.470;2023-06-22T11:56:59;96995.70;;;31.51;30.66
47080;BME280;33067;49.296;14.470;2023-06-22T11:59:24;96996.15;;;32.15;30.94
47080;BME280;33067;49.296;14.470;2023-06-22T12:01:50;96991.33;;;31.88;30.76
47080;BME280;33067;49.296;14.470;2023-06-22T12:04:15;96987.51;;;32.40;30.51
47080;BME280;33067;49.296;14.470;2023-06-22T12:06:41;96984.77;;;32.20;30.07
47080;BME280;33067;49.296;14.470;2023-06-22T12:09:06;96985.50;;;32.56;29.80
47080;BME280;33067;49.296;14.470;2023-06-22T12:11:32;96990.04;;;32.42;30.03
47080;BME280;33067;49.296;14.470;2023-06-22T12:13:58;96985.91;;;32.91;29.53
47080;BME280;33067;49.296;14.470;2023-06-22T12:16:23;96981.66;;;32.67;29.08
47080;BME280;33067;49.296;14.470;2023-06-22T12:18:48;96977.04;;;33.06;29.11
47080;BME280;33067;49.296;14.470;2023-06-22T12:21:14;96976.61;;;32.66;29.34
47080;BME280;33067;49.296;14.470;2023-06-22T12:23:39;96974.18;;;33.07;29.13
47080;BME280;33067;49.296;14.470;2023-06-22T12:26:04;96972.52;;;32.91;29.39
47080;BME280;33067;49.296;14.470;2023-06-22T12:28:30;96979.65;;;33.12;27.79
47080;BME280;33067;49.296;14.470;2023-06-22T12:30:55;96973.42;;;32.84;27.80
47080;BME280;33067;49.296;14.470;2023-06-22T12:33:21;96970.19;;;32.96;28.00
47080;BME280;33067;49.296;14.470;2023-06-22T12:35:46;96973.15;;;33.28;27.49
47080;BME280;33067;49.296;14.470;2023-06-22T12:38:12;96972.23;;;32.73;27.97
47080;BME280;33067;49.296;14.470;2023-06-22T12:40:37;96969.07;;;32.83;28.35